Time;durP1;ratioP1;P1;durP2;ratioP2;P2;SDS_P1;SDS_P2;PMS_P1;PMS_P2;Temp;Humidity;BMP_temperature;BMP_pressure;BME280_temperature;BME280_humidity;BME280_pressure;Samples;Min_cycle;Max_cycle;Signal;HPM_P1;HPM_P2
2022/12/27 00:01:59;;;;;;;2.22;1.23;;;;;;;7.47;75.39;100038.75;30508769;28;96910;-71
2022/12/27 00:17:00;;;;;;;2.77;1.40;;;;;;;7.45;75.89;100063.59;30511212;28;97283;-71
2022/12/27 00:32:00;;;;;;;2.83;1.45;;;;;;;7.23;76.05;100091.41;30509407;28;97665;-71
2022/12/27 00:47:01;;;;;;;1.50;1.00;;;;;;;7.11;76.66;100127.84;30509427;28;97079;-71
2022/12/27 01:02:01;;;;;;;2.78;1.17;;;;;;;6.94;75.89;100144.53;30507393;28;97222;-70
2022/12/27 01:17:02;;;;;;;5.47;1.13;;;;;;;6.66;76.00;100146.38;30506001;28;97255;-70
2022/12/27 01:32:02;;;;;;;3.70;1.30;;;;;;;6.40;75.77;100174.31;30505558;28;96721;-71
2022/12/27 01:47:12;;;;;;;2.50;1.15;;;;;;;6.11;76.36;100214.06;30504164;28;96761;-71
2022/12/27 02:02:12;;;;;;;2.33;1.10;;;;;;;5.90;76.51;100207.03;30502709;28;97435;-71
2022/12/27 02:17:21;;;;;;;3.00;1.30;;;;;;;5.81;76.30;100262.56;30499554;28;96982;-71
2022/12/27 02:32:27;;;;;;;2.22;1.10;;;;;;;5.62;76.59;100309.16;30499681;28;97548;-71
2022/12/27 03:18:17;;;;;;;3.95;0.80;;;;;;;4.65;76.59;100360.53;30491747;28;97114;-71
2022/12/27 03:33:17;;;;;;;4.60;1.40;;;;;;;4.68;76.74;100385.81;30492696;28;97611;-71
2022/12/27 03:48:23;;;;;;;5.78;1.73;;;;;;;4.66;77.01;100425.53;30491388;28;96704;-71
2022/12/27 04:03:24;;;;;;;6.63;1.15;;;;;;;4.07;76.51;100464.53;30490888;28;96590;-71
2022/12/27 05:04:21;;;;;;;4.15;1.40;;;;;;;2.64;77.53;100567.44;30504484;28;97004;-72
2022/12/27 05:19:21;;;;;;;9.32;1.33;;;;;;;2.38;77.09;100596.41;30502341;28;97729;-72
2022/12/27 05:34:21;;;;;;;3.35;1.00;;;;;;;2.20;77.24;100624.81;30500476;28;99817;-72
2022/12/27 05:49:22;;;;;;;7.03;1.25;;;;;;;2.26;77.76;100627.03;30548100;28;97207;-72
2022/12/27 06:04:22;;;;;;;8.57;1.55;;;;;;;2.75;77.47;100654.31;30635172;28;96656;-69
2022/12/27 06:19:23;;;;;;;3.22;1.30;;;;;;;2.40;76.31;100673.41;30621512;28;97494;-69
2022/12/27 06:34:23;;;;;;;1.60;1.13;;;;;;;2.22;77.55;100669.41;30614661;28;96732;-70
2022/12/27 06:49:24;;;;;;;8.43;1.63;;;;;;;2.05;77.02;100684.53;30615161;28;96826;-67
2022/12/27 07:04:25;;;;;;;6.85;1.33;;;;;;;1.85;77.05;100707.72;30607782;28;96822;-70
2022/12/27 07:19:25;;;;;;;2.70;1.30;;;;;;;1.91;77.40;100730.09;30593297;28;97392;-69
2022/12/27 07:34:26;;;;;;;5.68;1.50;;;;;;;2.42;77.21;100767.94;30504076;28;96967;-67
2022/12/27 07:49:26;;;;;;;6.57;1.92;;;;;;;3.16;76.91;100790.06;30491492;28;96676;-67
2022/12/27 08:04:27;;;;;;;3.78;1.40;;;;;;;3.89;75.08;100790.16;30592188;28;96919;-78
2022/12/27 08:19:28;;;;;;;3.05;1.30;;;;;;;4.81;72.63;100789.50;30615116;28;97883;-73
2022/12/27 08:34:28;;;;;;;4.18;1.85;;;;;;;9.39;66.57;100806.78;30627550;28;96705;-72
2022/12/27 08:49:28;;;;;;;4.88;2.00;;;;;;;12.89;58.32;100817.19;30638304;28;96852;-72
2022/12/27 09:04:29;;;;;;;3.45;1.63;;;;;;;17.77;49.39;100831.03;30634957;28;97329;-68
2022/12/27 09:19:29;;;;;;;3.00;1.33;;;;;;;20.70;39.45;100837.84;30588107;28;96739;-72
2022/12/27 09:34:30;;;;;;;3.60;0.95;;;;;;;21.57;34.34;100840.50;30508937;28;97598;-70
2022/12/27 09:49:42;;;;;;;4.43;1.40;;;;;;;21.78;30.91;100822.09;30511371;28;98247;-75
2022/12/27 10:04:42;;;;;;;5.63;1.60;;;;;;;23.30;24.46;100843.47;30515192;28;96736;-67
2022/12/27 10:19:47;;;;;;;3.00;1.20;;;;;;;23.53;24.54;100848.03;30599366;28;97225;-69
2022/12/27 10:34:58;;;;;;;3.97;1.17;;;;;;;25.12;21.25;100830.06;30625785;28;97561;-71
2022/12/27 10:50:11;;;;;;;6.43;1.30;;;;;;;24.81;20.52;100835.09;30558254;28;98653;-70
2022/12/27 11:05:19;;;;;;;2.20;0.90;;;;;;;20.79;23.34;100845.47;30528844;28;96953;-70
2022/12/27 11:20:30;;;;;;;3.10;0.90;;;;;;;22.73;21.78;100839.47;30612063;28;97265;-72
2022/12/27 11:35:35;;;;;;;2.53;0.93;;;;;;;25.38;19.79;100842.16;30612596;28;96751;-69
2022/12/27 11:50:56;;;;;;;5.20;1.37;;;;;;;21.60;24.52;100859.03;30588747;28;98342;-70
2022/12/27 12:06:21;;;;;;;4.17;1.17;;;;;;;19.76;25.80;100844.63;30568929;28;98722;-70
2022/12/27 12:21:41;;;;;;;3.50;1.13;;;;;;;15.47;30.85;100841.06;30610265;28;96771;-73
2022/12/27 12:37:03;;;;;;;3.20;1.10;;;;;;;10.21;38.24;100836.13;30611540;28;96854;-74
2022/12/27 12:52:16;;;;;;;3.90;1.50;;;;;;;8.50;42.39;100859.31;30588515;28;97289;-69
2022/12/27 13:07:30;;;;;;;2.33;1.20;;;;;;;7.94;44.46;100863.41;30610553;28;97798;-72
2022/12/27 13:23:05;;;;;;;2.97;1.80;;;;;;;6.88;47.30;100874.28;30622730;28;97821;-72
2022/12/27 13:38:20;;;;;;;2.58;1.60;;;;;;;6.25;49.06;100900.66;30621068;28;97951;-72
2022/12/27 13:53:36;;;;;;;3.63;2.45;;;;;;;6.01;50.50;100906.13;30620537;28;96744;-73
2022/12/27 14:09:16;;;;;;;5.80;1.58;;;;;;;5.47;51.75;100932.31;30617253;28;97450;-73
2022/12/27 14:24:41;;;;;;;3.45;1.95;;;;;;;5.14;53.60;100957.72;30630821;28;96625;-73
2022/12/27 14:39:41;;;;;;;;;;;;;;;5.00;54.56;100966.69;30651669;28;97821;-73
2022/12/27 14:55:11;;;;;;;7.93;2.67;;;;;;;4.86;55.64;100990.63;30617044;28;98018;-70
2022/12/27 15:10:20;;;;;;;5.25;2.47;;;;;;;4.66;56.36;100990.31;30655465;28;97088;-69
2022/12/27 15:25:50;;;;;;;7.35;2.63;;;;;;;4.45;57.85;100978.69;30666386;28;97190;-68
2022/12/27 15:41:05;;;;;;;7.30;3.15;;;;;;;4.30;58.62;100989.38;30625482;28;97841;-70
2022/12/27 15:56:20;;;;;;;8.15;3.10;;;;;;;4.26;59.19;100998.44;31146166;28;96507;-69
2022/12/27 16:11:58;;;;;;;6.63;3.53;;;;;;;4.13;59.90;100990.59;31132611;28;96771;-68
2022/12/27 16:27:03;;;;;;;11.00;4.75;;;;;;;3.97;60.82;100996.09;31080913;27;97679;-69
2022/12/27 16:42:06;;;;;;;12.02;4.45;;;;;;;3.89;61.35;101001.06;31064988;28;97509;-79
2022/12/27 16:57:25;;;;;;;16.40;5.18;;;;;;;3.83;62.10;101010.22;31043517;28;98215;-72
2022/12/27 17:12:26;;;;;;;8.82;4.85;;;;;;;3.96;62.50;101033.09;30970815;28;98032;-75
2022/12/27 17:27:59;;;;;;;8.20;3.30;;;;;;;4.03;62.94;101044.91;30974205;28;97139;-71
2022/12/27 17:58:32;;;;;;;7.65;3.55;;;;;;;3.95;62.91;101048.09;30973522;28;97046;-73
2022/12/27 18:13:37;;;;;;;6.80;3.40;;;;;;;3.70;62.94;101054.19;30971374;28;97318;-71
2022/12/27 18:28:38;;;;;;;10.02;4.53;;;;;;;3.05;63.25;101053.22;30972871;28;96750;-83
2022/12/27 18:43:45;;;;;;;12.00;6.07;;;;;;;2.32;64.29;101047.31;30970238;28;96946;-73
2022/12/27 18:59:17;;;;;;;10.02;5.97;;;;;;;1.93;65.54;101069.84;30969580;28;97581;-73
2022/12/27 19:14:20;;;;;;;15.60;8.13;;;;;;;2.02;66.75;101074.56;30968131;28;97525;-71
2022/12/27 19:29:23;;;;;;;14.55;6.88;;;;;;;2.00;67.48;101078.19;30964174;28;97471;-73
2022/12/27 19:44:23;;;;;;;14.38;7.30;;;;;;;2.02;67.25;101085.06;30967903;28;97918;-71
2022/12/27 19:59:24;;;;;;;12.30;5.88;;;;;;;2.31;67.81;101084.19;30962066;28;97413;-71
2022/12/27 20:14:24;;;;;;;14.30;6.25;;;;;;;2.60;67.34;101074.50;30960194;28;97655;-67
2022/12/27 20:29:26;;;;;;;12.90;6.60;;;;;;;2.69;67.00;101089.72;30961447;28;97027;-70
2022/12/27 20:44:26;;;;;;;10.82;5.97;;;;;;;2.64;66.53;101091.78;30979712;28;97277;-70
2022/12/27 20:59:27;;;;;;;13.52;6.47;;;;;;;2.63;67.27;101097.97;30980553;28;96769;-70
2022/12/27 21:14:27;;;;;;;12.50;5.68;;;;;;;2.68;66.74;101089.81;30988630;28;97359;-72
2022/12/27 21:29:28;;;;;;;12.35;6.28;;;;;;;2.39;67.44;101081.94;30985581;28;96709;-77
2022/12/27 21:44:28;;;;;;;9.32;5.63;;;;;;;2.17;67.82;101077.16;30986586;28;97317;-71
2022/12/27 21:59:29;;;;;;;10.45;5.68;;;;;;;2.09;68.00;101080.28;30979553;28;97093;-68
2022/12/27 22:14:29;;;;;;;9.60;5.40;;;;;;;1.76;68.32;101077.88;30976672;28;96961;-70
2022/12/27 22:29:30;;;;;;;11.30;5.43;;;;;;;1.50;69.02;101075.00;30982040;28;96737;-67
2022/12/27 22:44:30;;;;;;;11.90;5.10;;;;;;;1.29;69.28;101075.31;30980636;28;97371;-68
2022/12/27 22:59:30;;;;;;;12.88;6.97;;;;;;;0.99;69.58;101049.06;30979380;28;97176;-65
2022/12/27 23:14:31;;;;;;;8.43;4.68;;;;;;;0.71;69.82;101039.28;30977930;28;96981;-66
2022/12/27 23:29:31;;;;;;;11.90;5.20;;;;;;;0.53;70.86;101023.63;30978223;28;96972;-70
2022/12/27 23:44:32;;;;;;;6.38;3.40;;;;;;;0.45;71.02;101018.81;30976251;28;97298;-68
2022/12/27 23:59:32;;;;;;;7.03;4.43;;;;;;;0.22;71.67;101009.59;30977644;28;96747;-68
